createdAt,value
2023-03-15T00:00:32.755Z,100772.94
2023-03-15T00:05:38.848Z,100776.66
2023-03-15T00:10:43.999Z,100787.06
2023-03-15T00:15:54.126Z,100791.38
2023-03-15T00:20:56.038Z,100790.75
2023-03-15T00:26:02.600Z,100787.13
2023-03-15T00:31:15.309Z,100809.47
2023-03-15T00:36:17.111Z,100813.53
2023-03-15T00:41:20.078Z,100832.28
2023-03-15T00:46:21.998Z,100843.00
2023-03-15T00:51:24.440Z,100851.25
2023-03-15T00:56:30.284Z,100865.69
2023-03-15T01:01:33.090Z,100879.19
2023-03-15T01:06:37.007Z,100877.81
2023-03-15T01:11:41.018Z,100886.53
2023-03-15T01:16:45.114Z,100890.88
2023-03-15T01:21:47.890Z,100900.25
2023-03-15T01:26:52.002Z,100898.78
2023-03-15T01:31:56.003Z,100915.72
2023-03-15T01:37:00.925Z,100915.09
2023-03-15T01:42:08.842Z,100913.75
2023-03-15T01:47:15.479Z,100931.00
2023-03-15T01:52:23.402Z,100942.44
2023-03-15T01:57:39.165Z,100949.81
2023-03-15T02:02:58.578Z,100954.84
2023-03-15T02:08:07.401Z,100957.59
2023-03-15T02:13:22.734Z,100970.53
2023-03-15T02:18:27.110Z,100980.19
2023-03-15T02:23:29.404Z,100996.34
2023-03-15T02:28:32.409Z,100999.38
2023-03-15T02:33:39.093Z,101004.31
2023-03-15T02:38:45.566Z,101003.34
2023-03-15T02:43:53.191Z,101006.50
2023-03-15T02:49:00.065Z,100995.34
2023-03-15T02:54:05.717Z,101007.47
2023-03-15T02:59:09.668Z,101022.41
2023-03-15T03:04:14.213Z,101030.53
2023-03-15T03:09:19.221Z,101033.91
2023-03-15T03:14:26.081Z,101032.75
2023-03-15T03:19:29.971Z,101041.88
2023-03-15T03:24:32.389Z,101042.19
2023-03-15T03:29:34.230Z,101055.88
2023-03-15T03:34:39.811Z,101072.56
2023-03-15T03:39:42.251Z,101089.59
2023-03-15T03:44:43.991Z,101091.66
2023-03-15T03:49:48.373Z,101100.78
2023-03-15T03:54:50.897Z,101119.38
2023-03-15T03:59:58.656Z,101132.31
2023-03-15T04:05:00.979Z,101130.81
2023-03-15T04:10:05.878Z,101147.81
2023-03-15T04:15:10.044Z,101152.13
2023-03-15T04:20:12.940Z,101155.50
2023-03-15T04:25:26.726Z,101154.84
2023-03-15T04:30:39.463Z,101159.19
2023-03-15T04:35:54.535Z,101168.19
2023-03-15T04:41:16.218Z,101172.88
2023-03-15T04:46:35.021Z,101173.25
2023-03-15T04:51:59.673Z,101177.88
2023-03-15T04:57:06.247Z,101195.59
2023-03-15T05:02:18.983Z,101194.75
2023-03-15T05:07:46.072Z,101202.63
2023-03-15T05:13:08.077Z,101208.63
2023-03-15T05:18:32.672Z,101216.72
2023-03-15T05:23:55.363Z,101228.69
2023-03-15T05:29:03.701Z,101226.06
2023-03-15T05:34:25.787Z,101219.88
2023-03-15T05:39:49.631Z,101230.09
2023-03-15T05:45:10.113Z,101240.72
2023-03-15T05:50:23.362Z,101253.84
2023-03-15T05:55:52.273Z,101268.00
2023-03-15T06:01:15.024Z,101282.78
2023-03-15T06:06:33.776Z,101283.75
2023-03-15T06:11:41.213Z,101289.06
2023-03-15T06:16:49.055Z,101298.63
2023-03-15T06:21:51.848Z,101310.00
2023-03-15T06:27:04.321Z,101323.66
2023-03-15T06:32:10.088Z,101329.91
2023-03-15T06:37:29.088Z,101348.31
2023-03-15T06:42:36.904Z,101363.22
2023-03-15T06:47:39.028Z,101352.56
2023-03-15T06:52:45.407Z,101356.66
2023-03-15T06:57:48.168Z,101368.84
2023-03-15T07:02:49.931Z,101381.69
2023-03-15T07:07:56.420Z,101388.19
2023-03-15T07:12:58.078Z,101403.56
2023-03-15T07:18:00.619Z,101402.13
2023-03-15T07:23:09.407Z,101410.28
2023-03-15T07:28:18.483Z,101405.63
2023-03-15T07:33:22.561Z,101406.88
2023-03-15T07:38:30.886Z,101410.69
2023-03-15T07:43:36.105Z,101423.22
2023-03-15T07:48:49.627Z,101425.75
2023-03-15T07:53:53.883Z,101430.81
2023-03-15T07:58:55.604Z,101452.41
2023-03-15T08:04:02.670Z,101463.06
2023-03-15T08:09:06.925Z,101467.16
2023-03-15T08:14:08.653Z,101477.75
2023-03-15T08:19:10.416Z,101500.97
2023-03-15T08:24:12.795Z,101514.53
2023-03-15T08:29:15.409Z,101547.47
2023-03-15T08:34:19.688Z,101539.97
2023-03-15T08:39:24.043Z,101564.88
2023-03-15T08:44:25.755Z,101564.91
2023-03-15T08:49:29.956Z,101592.88
2023-03-15T08:54:41.030Z,101604.25
2023-03-15T08:59:42.903Z,101622.41
2023-03-15T09:04:47.363Z,101626.81
2023-03-15T09:09:49.162Z,101621.84
2023-03-15T09:14:53.121Z,101624.72
2023-03-15T09:19:54.788Z,101628.88
2023-03-15T09:24:57.724Z,101616.50
2023-03-15T09:29:59.452Z,101608.06
2023-03-15T09:35:04.411Z,101597.91
2023-03-15T09:40:31.666Z,101586.09
2023-03-15T09:45:42.811Z,101587.47
2023-03-15T09:50:50.742Z,101577.41
2023-03-15T09:55:55.034Z,101584.97
2023-03-15T10:01:16.168Z,101608.88
2023-03-15T10:06:29.983Z,101607.94
2023-03-15T10:11:59.640Z,101665.44
2023-03-15T10:17:05.373Z,101672.75
2023-03-15T10:22:16.223Z,101664.56
2023-03-15T10:27:30.911Z,101665.59
2023-03-15T10:32:38.497Z,101696.22
2023-03-15T10:37:42.782Z,101745.22
2023-03-15T10:42:52.149Z,101738.84
2023-03-15T10:48:00.556Z,101743.88
2023-03-15T10:53:16.481Z,101735.78
2023-03-15T10:58:18.153Z,101737.28
2023-03-15T11:03:24.092Z,101722.28
2023-03-15T11:08:39.875Z,101728.25
2023-03-15T11:13:59.471Z,101717.13
2023-03-15T11:19:01.669Z,101713.91
2023-03-15T11:24:08.285Z,101716.75
2023-03-15T11:29:29.961Z,101724.50
2023-03-15T11:34:41.844Z,101723.25
2023-03-15T11:39:53.725Z,101727.88
2023-03-15T11:45:07.308Z,101736.66
2023-03-15T11:50:14.587Z,101728.88
2023-03-15T11:55:20.234Z,101733.41
2023-03-15T12:00:36.384Z,101724.88
2023-03-15T12:05:42.729Z,101733.53
2023-03-15T12:10:50.739Z,101742.06
2023-03-15T12:15:53.335Z,101739.84
2023-03-15T12:21:10.469Z,101738.91
2023-03-15T12:26:31.012Z,101743.66
2023-03-15T12:32:01.934Z,101736.41
2023-03-15T12:37:12.659Z,101744.34
2023-03-15T12:42:38.772Z,101743.94
2023-03-15T12:48:06.507Z,101741.94
2023-03-15T12:53:19.826Z,101745.47
2023-03-15T12:58:27.089Z,101749.94
2023-03-15T13:03:34.726Z,101751.00
2023-03-15T13:09:00.196Z,101752.69
2023-03-15T13:14:29.114Z,101753.56
2023-03-15T13:19:45.071Z,101749.38
2023-03-15T13:24:57.827Z,101750.81
2023-03-15T13:29:59.542Z,101755.06
2023-03-15T13:35:03.885Z,101754.16
2023-03-15T13:40:13.908Z,101740.38
2023-03-15T13:45:16.928Z,101750.00
2023-03-15T13:50:20.678Z,101741.13
2023-03-15T13:55:25.294Z,101750.41
2023-03-15T14:00:27.282Z,101757.63
2023-03-15T14:05:42.351Z,101763.41
2023-03-15T14:10:46.301Z,101768.38
2023-03-15T14:15:48.230Z,101765.88
2023-03-15T14:21:00.402Z,101768.94
2023-03-15T14:26:28.231Z,101768.13
2023-03-15T14:31:39.668Z,101777.06
2023-03-15T14:36:45.342Z,101774.28
2023-03-15T14:41:49.288Z,101781.28
2023-03-15T14:46:51.297Z,101785.06
2023-03-15T14:52:00.309Z,101792.50
2023-03-15T14:57:05.084Z,101803.97
2023-03-15T15:02:13.898Z,101808.56
2023-03-15T15:07:20.400Z,101794.00
2023-03-15T15:12:24.373Z,101807.78
2023-03-15T15:17:28.849Z,101807.53
2023-03-15T15:22:35.414Z,101802.31
2023-03-15T15:27:39.500Z,101822.91
2023-03-15T15:32:41.577Z,101810.44
2023-03-15T15:37:47.783Z,101810.66
2023-03-15T15:42:49.521Z,101814.38
2023-03-15T15:47:56.718Z,101806.38
2023-03-15T15:52:58.653Z,101807.44
2023-03-15T15:58:03.177Z,101825.81
2023-03-15T16:03:16.369Z,101817.19
2023-03-15T16:08:23.177Z,101825.69
2023-03-15T16:13:24.937Z,101826.75
2023-03-15T16:18:29.820Z,101828.72
2023-03-15T16:23:31.710Z,101835.25
2023-03-15T16:28:33.428Z,101830.19
2023-03-15T16:33:37.442Z,101840.75
2023-03-15T16:38:39.216Z,101852.97
2023-03-15T16:43:43.950Z,101856.41
2023-03-15T16:48:45.845Z,101858.63
2023-03-15T16:53:47.558Z,101864.09
2023-03-15T16:59:00.282Z,101871.75
2023-03-15T17:04:05.350Z,101875.66
2023-03-15T17:09:21.668Z,101885.94
2023-03-15T17:14:30.637Z,101884.28
2023-03-15T17:19:35.020Z,101894.78
2023-03-15T17:24:39.024Z,101895.56
2023-03-15T17:29:46.585Z,101901.25
2023-03-15T17:34:50.530Z,101896.06
2023-03-15T17:39:54.936Z,101901.06
2023-03-15T17:45:00.962Z,101903.41
2023-03-15T17:50:08.974Z,101907.16
2023-03-15T17:55:21.272Z,101912.06
2023-03-15T18:00:24.273Z,101907.66
2023-03-15T18:05:30.073Z,101909.88
2023-03-15T18:10:35.870Z,101911.97
2023-03-15T18:15:40.111Z,101913.63
2023-03-15T18:20:49.484Z,101926.56
2023-03-15T18:25:52.227Z,101923.31
2023-03-15T18:30:56.153Z,101931.06
2023-03-15T18:35:58.147Z,101934.19
2023-03-15T18:41:02.324Z,101936.34
2023-03-15T18:46:04.077Z,101943.31
2023-03-15T18:51:08.812Z,101949.78
2023-03-15T18:56:19.424Z,101960.13
2023-03-15T19:01:24.464Z,101956.72
2023-03-15T19:06:28.827Z,101954.13
2023-03-15T19:11:31.703Z,101955.25
2023-03-15T19:16:33.693Z,101954.97
2023-03-15T19:21:38.914Z,101962.03
2023-03-15T19:26:40.702Z,101956.66
2023-03-15T19:31:42.469Z,101969.09
2023-03-15T19:36:49.379Z,101969.88
2023-03-15T19:41:53.925Z,101967.25
2023-03-15T19:47:00.523Z,101966.19
2023-03-15T19:52:02.825Z,101970.44
2023-03-15T19:57:09.912Z,101972.13
2023-03-15T20:02:12.129Z,101972.03
2023-03-15T20:07:13.833Z,101975.31
2023-03-15T20:12:15.655Z,101974.13
2023-03-15T20:17:20.617Z,101974.88
2023-03-15T20:22:24.814Z,101980.88
2023-03-15T20:27:26.737Z,101976.31
2023-03-15T20:32:28.728Z,101975.94
2023-03-15T20:37:31.091Z,101971.50
2023-03-15T20:42:40.310Z,101968.59
2023-03-15T20:47:42.186Z,101978.84
2023-03-15T20:52:47.235Z,101977.22
2023-03-15T20:57:53.388Z,101976.97
2023-03-15T21:02:55.282Z,101979.47
2023-03-15T21:07:59.457Z,101989.13
2023-03-15T21:13:08.826Z,101976.69
2023-03-15T21:18:13.006Z,101990.25
2023-03-15T21:23:14.720Z,101980.28
2023-03-15T21:28:18.934Z,101971.91
2023-03-15T21:33:24.227Z,101974.84
2023-03-15T21:38:32.695Z,101981.44
2023-03-15T21:43:39.600Z,101985.19
2023-03-15T21:48:44.118Z,101994.78
2023-03-15T21:53:46.321Z,101994.03
2023-03-15T21:58:50.566Z,101982.94
2023-03-15T22:03:55.233Z,101990.16
2023-03-15T22:08:59.054Z,101982.25
2023-03-15T22:14:00.958Z,101983.22
2023-03-15T22:19:05.441Z,101976.44
2023-03-15T22:24:10.650Z,101970.84
2023-03-15T22:29:14.845Z,101969.63
2023-03-15T22:34:21.793Z,101963.63
2023-03-15T22:39:26.126Z,101972.66
2023-03-15T22:44:30.356Z,101967.72
2023-03-15T22:49:32.165Z,101974.19
2023-03-15T22:54:36.360Z,101977.94
2023-03-15T22:59:38.897Z,101966.84
2023-03-15T23:04:46.013Z,101966.78
2023-03-15T23:09:47.709Z,101967.69
2023-03-15T23:14:49.742Z,101980.84
2023-03-15T23:19:54.592Z,101974.75
2023-03-15T23:24:58.239Z,101972.41
2023-03-15T23:30:00.220Z,101976.06
2023-03-15T23:35:03.347Z,101977.75
2023-03-15T23:40:13.873Z,101977.47
2023-03-15T23:45:17.738Z,101979.75
2023-03-15T23:50:26.186Z,101983.63
2023-03-15T23:55:33.247Z,101976.41
